createdAt,value
2023-05-20T00:00:12.546Z,18.40
2023-05-20T00:02:41.886Z,18.40
2023-05-20T00:05:11.384Z,18.40
2023-05-20T00:07:42.211Z,18.40
2023-05-20T00:10:12.310Z,18.40
2023-05-20T00:12:41.773Z,18.40
2023-05-20T00:15:12.126Z,18.30
2023-05-20T00:17:41.677Z,18.30
2023-05-20T00:20:11.411Z,18.30
2023-05-20T00:22:41.761Z,18.30
2023-05-20T00:25:11.507Z,18.30
2023-05-20T00:27:40.788Z,18.30
2023-05-20T00:30:11.205Z,18.30
2023-05-20T00:32:40.562Z,18.30
2023-05-20T00:35:10.971Z,18.30
2023-05-20T00:37:41.453Z,18.30
2023-05-20T00:40:13.038Z,18.30
2023-05-20T00:42:44.378Z,18.30
2023-05-20T00:45:13.891Z,18.30
2023-05-20T00:47:44.691Z,18.30
2023-05-20T00:50:14.513Z,18.30
2023-05-20T00:52:48.340Z,18.30
2023-05-20T00:55:18.047Z,18.30
2023-05-20T00:57:48.056Z,18.30
2023-05-20T01:00:17.681Z,18.30
2023-05-20T01:02:47.136Z,18.20
2023-05-20T01:05:16.865Z,18.20
2023-05-20T01:07:47.875Z,18.20
2023-05-20T01:10:27.232Z,18.20
2023-05-20T01:13:09.972Z,18.20
2023-05-20T01:15:41.398Z,18.20
2023-05-20T01:18:11.858Z,18.20
2023-05-20T01:20:41.267Z,18.10
2023-05-20T01:23:11.915Z,18.10
2023-05-20T01:25:44.093Z,18.10
2023-05-20T01:28:17.878Z,18.10
2023-05-20T01:30:53.581Z,18.10
2023-05-20T01:33:25.330Z,18.10
2023-05-20T01:35:54.886Z,18.10
2023-05-20T01:38:27.134Z,18.10
2023-05-20T01:40:58.602Z,18.10
2023-05-20T01:43:29.012Z,18.10
2023-05-20T01:45:58.667Z,18.10
2023-05-20T01:48:28.075Z,18.00
2023-05-20T01:50:57.507Z,18.00
2023-05-20T01:53:28.409Z,18.00
2023-05-20T01:55:57.924Z,18.00
2023-05-20T01:58:27.809Z,18.00
2023-05-20T02:00:57.084Z,18.00
2023-05-20T02:03:26.636Z,18.00
2023-05-20T02:05:57.023Z,18.00
2023-05-20T02:08:28.330Z,18.00
2023-05-20T02:10:57.625Z,17.90
2023-05-20T02:13:27.090Z,17.90
2023-05-20T02:15:56.419Z,17.90
2023-05-20T02:18:26.852Z,17.90
2023-05-20T02:20:55.843Z,17.90
2023-05-20T02:23:25.008Z,17.90
2023-05-20T02:25:55.499Z,17.80
2023-05-20T02:28:24.726Z,17.80
2023-05-20T02:30:54.115Z,17.80
2023-05-20T02:33:23.557Z,17.80
2023-05-20T02:35:52.857Z,17.70
2023-05-20T02:38:22.381Z,17.70
2023-05-20T02:40:51.567Z,17.70
2023-05-20T02:43:22.212Z,17.70
2023-05-20T02:45:51.580Z,17.70
2023-05-20T02:48:20.881Z,17.70
2023-05-20T02:50:50.256Z,17.70
2023-05-20T02:53:19.711Z,17.70
2023-05-20T02:55:49.494Z,17.60
2023-05-20T02:58:18.793Z,17.60
2023-05-20T03:00:49.189Z,17.60
2023-05-20T03:03:18.248Z,17.60
2023-05-20T03:05:47.485Z,17.50
2023-05-20T03:08:16.721Z,17.50
2023-05-20T03:10:46.994Z,17.50
2023-05-20T03:13:16.553Z,17.40
2023-05-20T03:15:46.466Z,17.40
2023-05-20T03:18:17.344Z,17.40
2023-05-20T03:20:47.639Z,17.30
2023-05-20T03:23:16.613Z,17.30
2023-05-20T03:25:46.238Z,17.30
2023-05-20T03:28:15.377Z,17.30
2023-05-20T03:30:46.782Z,17.20
2023-05-20T03:33:17.150Z,17.20
2023-05-20T03:35:46.488Z,17.20
2023-05-20T03:38:16.784Z,17.20
2023-05-20T03:40:45.852Z,17.20
2023-05-20T03:43:14.673Z,17.20
2023-05-20T03:45:43.929Z,17.20
2023-05-20T03:48:12.945Z,17.10
2023-05-20T03:50:44.049Z,17.10
2023-05-20T03:53:13.454Z,17.10
2023-05-20T03:55:43.935Z,17.10
2023-05-20T03:58:15.238Z,17.20
2023-05-20T04:00:44.660Z,17.20
2023-05-20T04:03:14.387Z,17.20
2023-05-20T04:05:44.852Z,17.20
2023-05-20T04:08:20.041Z,17.20
2023-05-20T04:10:49.514Z,17.20
2023-05-20T04:13:18.754Z,17.20
2023-05-20T04:15:49.122Z,17.20
2023-05-20T04:18:18.511Z,17.20
2023-05-20T04:20:49.083Z,17.20
2023-05-20T04:23:19.138Z,17.30
2023-05-20T04:25:48.852Z,17.30
2023-05-20T04:28:18.400Z,17.20
2023-05-20T04:30:47.676Z,17.20
2023-05-20T04:33:18.578Z,17.30
2023-05-20T04:35:49.186Z,17.20
2023-05-20T04:38:18.396Z,17.30
2023-05-20T04:40:47.975Z,17.30
2023-05-20T04:43:17.577Z,17.30
2023-05-20T04:45:48.090Z,17.30
2023-05-20T04:48:17.983Z,17.30
2023-05-20T04:50:49.670Z,17.30
2023-05-20T04:53:18.966Z,17.30
2023-05-20T04:55:48.096Z,17.30
2023-05-20T04:58:17.715Z,17.30
2023-05-20T05:00:47.388Z,17.30
2023-05-20T05:03:17.308Z,17.30
2023-05-20T05:05:48.061Z,17.40
2023-05-20T05:08:17.944Z,17.40
2023-05-20T05:10:52.340Z,17.40
2023-05-20T05:13:22.768Z,17.40
2023-05-20T05:15:59.837Z,17.50
2023-05-20T05:18:30.665Z,17.50
2023-05-20T05:21:05.480Z,17.50
2023-05-20T05:23:36.741Z,17.60
2023-05-20T05:26:06.004Z,17.60
2023-05-20T05:28:35.161Z,17.60
2023-05-20T05:31:04.433Z,17.60
2023-05-20T05:33:33.573Z,17.60
2023-05-20T05:36:04.987Z,17.60
2023-05-20T05:38:34.597Z,17.60
2023-05-20T05:41:04.402Z,17.60
2023-05-20T05:43:34.819Z,17.70
2023-05-20T05:46:05.449Z,17.70
2023-05-20T05:48:34.839Z,17.80
2023-05-20T05:51:05.732Z,17.80
2023-05-20T05:53:35.713Z,17.80
2023-05-20T05:56:06.118Z,17.90
2023-05-20T05:58:35.596Z,17.90
2023-05-20T06:01:07.338Z,18.00
2023-05-20T06:03:36.676Z,18.10
2023-05-20T06:06:07.310Z,18.10
2023-05-20T06:08:37.150Z,18.20
2023-05-20T06:11:06.886Z,18.20
2023-05-20T06:13:36.491Z,18.30
2023-05-20T06:16:06.085Z,18.40
2023-05-20T06:18:35.539Z,18.40
2023-05-20T06:21:08.377Z,18.50
2023-05-20T06:23:37.572Z,18.50
2023-05-20T06:26:09.571Z,18.60
2023-05-20T06:28:39.893Z,18.60
2023-05-20T06:31:09.530Z,18.60
2023-05-20T06:33:40.188Z,18.60
2023-05-20T06:36:14.660Z,18.70
2023-05-20T06:38:44.139Z,18.70
2023-05-20T06:41:15.204Z,18.70
2023-05-20T06:43:44.414Z,18.70
2023-05-20T06:46:32.182Z,18.70
2023-05-20T06:49:08.064Z,18.70
2023-05-20T06:51:38.860Z,18.70
2023-05-20T06:54:08.153Z,18.70
2023-05-20T06:56:38.373Z,18.70
2023-05-20T06:59:08.014Z,18.70
2023-05-20T07:01:38.261Z,18.80
2023-05-20T07:04:08.082Z,18.80
2023-05-20T07:06:39.964Z,18.90
2023-05-20T07:09:09.055Z,18.90
2023-05-20T07:11:38.362Z,18.90
2023-05-20T07:14:08.925Z,19.00
2023-05-20T07:16:38.250Z,19.00
2023-05-20T07:19:07.274Z,19.00
2023-05-20T07:21:36.952Z,19.00
2023-05-20T07:24:22.037Z,19.10
2023-05-20T07:26:51.175Z,19.10
2023-05-20T07:29:20.437Z,19.10
2023-05-20T07:31:49.685Z,19.10
2023-05-20T07:34:19.720Z,19.10
2023-05-20T07:36:49.645Z,19.20
2023-05-20T07:39:19.225Z,19.30
2023-05-20T07:41:49.900Z,19.30
2023-05-20T07:44:21.546Z,19.40
2023-05-20T07:46:52.847Z,19.50
2023-05-20T07:49:23.254Z,19.70
2023-05-20T07:51:52.443Z,19.80
2023-05-20T07:54:21.813Z,19.90
2023-05-20T07:56:54.806Z,20.10
2023-05-20T07:59:24.030Z,20.20
2023-05-20T08:01:53.531Z,20.30
2023-05-20T08:04:23.418Z,20.40
2023-05-20T08:06:54.546Z,20.40
2023-05-20T08:09:37.747Z,20.50
2023-05-20T08:12:08.771Z,20.60
2023-05-20T08:14:37.919Z,20.60
2023-05-20T08:17:07.426Z,20.70
2023-05-20T08:19:36.502Z,20.70
2023-05-20T08:22:07.467Z,20.70
2023-05-20T08:24:36.404Z,20.60
2023-05-20T08:27:06.425Z,20.50
2023-05-20T08:29:37.266Z,20.50
2023-05-20T08:32:07.624Z,20.40
2023-05-20T08:34:37.961Z,20.40
2023-05-20T08:37:07.520Z,20.40
2023-05-20T08:39:36.728Z,20.40
2023-05-20T08:42:07.904Z,20.50
2023-05-20T08:44:38.789Z,20.60
2023-05-20T08:47:09.639Z,20.60
2023-05-20T08:49:40.140Z,20.70
2023-05-20T08:52:12.465Z,20.80
2023-05-20T08:54:45.994Z,20.80
2023-05-20T08:57:15.401Z,20.90
2023-05-20T08:59:47.896Z,20.90
2023-05-20T09:02:17.176Z,20.90
2023-05-20T09:04:46.625Z,20.90
2023-05-20T09:07:16.138Z,20.90
2023-05-20T09:09:45.494Z,21.00
2023-05-20T09:12:16.199Z,21.00
2023-05-20T09:14:46.944Z,21.10
2023-05-20T09:17:17.695Z,21.20
2023-05-20T09:19:53.064Z,21.20
2023-05-20T09:22:25.986Z,21.30
2023-05-20T09:24:55.862Z,21.40
2023-05-20T09:27:25.656Z,21.40
2023-05-20T09:29:56.469Z,21.50
2023-05-20T09:32:28.453Z,21.50
2023-05-20T09:34:59.004Z,21.60
2023-05-20T09:37:30.098Z,21.60
2023-05-20T09:40:06.571Z,21.70
2023-05-20T09:42:41.558Z,21.70
2023-05-20T09:45:12.427Z,21.70
2023-05-20T09:47:42.668Z,21.80
2023-05-20T09:50:12.928Z,21.90
2023-05-20T09:52:43.368Z,21.90
2023-05-20T09:55:13.124Z,22.00
2023-05-20T09:57:42.516Z,22.00
2023-05-20T10:00:17.424Z,22.00
2023-05-20T10:02:54.349Z,22.00
2023-05-20T10:05:28.740Z,22.00
2023-05-20T10:08:29.882Z,22.10
2023-05-20T10:11:11.115Z,22.20
2023-05-20T10:13:52.027Z,22.20
2023-05-20T10:16:34.834Z,22.30
2023-05-20T10:19:13.144Z,22.30
2023-05-20T10:21:42.562Z,22.40
2023-05-20T10:24:13.343Z,22.40
2023-05-20T10:26:43.627Z,22.40
2023-05-20T10:29:16.969Z,22.50
2023-05-20T10:31:51.530Z,22.50
2023-05-20T10:34:22.985Z,22.50
2023-05-20T10:37:01.783Z,22.50
2023-05-20T10:39:34.108Z,22.50
2023-05-20T10:42:10.542Z,22.60
2023-05-20T10:44:43.952Z,22.70
2023-05-20T10:49:48.331Z,22.80
2023-05-20T10:52:19.155Z,22.80
2023-05-20T10:54:51.649Z,23.00
2023-05-20T10:57:22.136Z,23.00
2023-05-20T10:59:51.973Z,23.10
2023-05-20T11:02:27.205Z,23.10
2023-05-20T11:04:58.968Z,23.20
2023-05-20T11:07:29.581Z,23.30
2023-05-20T11:09:59.362Z,23.30
2023-05-20T11:12:29.593Z,23.40
2023-05-20T11:14:59.244Z,23.40
2023-05-20T11:17:30.662Z,23.40
2023-05-20T11:20:01.093Z,23.50
2023-05-20T11:22:30.834Z,23.50
2023-05-20T11:24:59.868Z,23.60
2023-05-20T11:27:29.566Z,23.70
2023-05-20T11:29:59.159Z,23.70
2023-05-20T11:32:30.140Z,23.70
2023-05-20T11:35:00.182Z,23.80
2023-05-20T11:37:30.043Z,23.90
2023-05-20T11:40:09.436Z,24.00
2023-05-20T11:42:45.300Z,24.10
2023-05-20T11:45:15.246Z,24.20
2023-05-20T11:47:46.216Z,24.30
2023-05-20T11:50:19.460Z,24.30
2023-05-20T11:52:57.732Z,24.40
2023-05-20T11:55:27.354Z,24.40
2023-05-20T11:57:57.509Z,24.50
2023-05-20T12:00:29.361Z,24.50
2023-05-20T12:03:04.942Z,24.50
2023-05-20T12:05:34.361Z,24.60
2023-05-20T12:08:04.734Z,24.60
2023-05-20T12:10:34.695Z,24.60
2023-05-20T12:13:04.317Z,24.70
2023-05-20T12:15:33.568Z,24.70
2023-05-20T12:18:04.829Z,24.70
2023-05-20T12:20:34.793Z,24.70
2023-05-20T12:23:05.000Z,24.70
2023-05-20T12:25:35.289Z,24.80
2023-05-20T12:28:04.767Z,24.80
2023-05-20T12:30:34.440Z,24.80
2023-05-20T12:33:05.192Z,24.80
2023-05-20T12:35:39.354Z,24.80
2023-05-20T12:38:09.330Z,24.80
2023-05-20T12:40:38.986Z,24.90
2023-05-20T12:43:08.473Z,25.00
2023-05-20T12:45:37.701Z,25.00
2023-05-20T12:48:08.500Z,25.10
2023-05-20T12:50:37.941Z,25.10
2023-05-20T12:53:07.767Z,25.20
2023-05-20T12:55:37.023Z,25.30
2023-05-20T12:58:06.077Z,25.30
2023-05-20T13:00:35.581Z,25.30
2023-05-20T13:03:05.778Z,25.30
2023-05-20T13:05:36.664Z,25.30
2023-05-20T13:08:06.382Z,25.30
2023-05-20T13:10:36.015Z,25.30
2023-05-20T13:13:05.592Z,25.30
2023-05-20T13:15:35.605Z,25.30
2023-05-20T13:18:06.728Z,25.40
2023-05-20T13:20:38.190Z,25.30
2023-05-20T13:23:08.212Z,25.40
2023-05-20T13:25:37.430Z,25.30
2023-05-20T13:28:07.589Z,25.30
2023-05-20T13:30:36.995Z,25.30
2023-05-20T13:33:06.721Z,25.20
2023-05-20T13:35:37.247Z,25.20
2023-05-20T13:38:07.177Z,25.20
2023-05-20T13:40:36.951Z,25.20
2023-05-20T13:43:06.436Z,25.10
2023-05-20T13:45:35.895Z,25.10
2023-05-20T13:48:05.718Z,25.10
2023-05-20T13:50:35.611Z,25.10
2023-05-20T13:53:06.707Z,25.10
2023-05-20T13:55:36.593Z,25.20
2023-05-20T13:58:08.960Z,25.20
2023-05-20T14:00:38.625Z,25.20
2023-05-20T14:03:09.220Z,25.30
2023-05-20T14:05:39.006Z,25.30
2023-05-20T14:08:10.110Z,25.40
2023-05-20T14:10:39.389Z,25.40
2023-05-20T14:13:10.649Z,25.40
2023-05-20T14:15:41.780Z,25.40
2023-05-20T14:18:11.772Z,25.40
2023-05-20T14:20:41.300Z,25.40
2023-05-20T14:23:12.028Z,25.50
2023-05-20T14:25:41.819Z,25.50
2023-05-20T14:28:11.245Z,25.50
2023-05-20T14:30:40.650Z,25.60
2023-05-20T14:33:10.959Z,25.60
2023-05-20T14:35:40.744Z,25.70
2023-05-20T14:38:11.550Z,25.60
2023-05-20T14:40:41.442Z,25.60
2023-05-20T14:43:10.951Z,25.60
2023-05-20T14:45:41.253Z,25.60
2023-05-20T14:48:11.524Z,25.60
2023-05-20T14:50:40.778Z,25.50
2023-05-20T14:53:13.862Z,25.50
2023-05-20T14:55:43.544Z,25.50
2023-05-20T14:58:13.220Z,25.60
2023-05-20T15:00:42.615Z,25.60
2023-05-20T15:03:12.692Z,25.60
2023-05-20T15:05:42.478Z,25.60
2023-05-20T15:08:13.504Z,25.60
2023-05-20T15:10:42.834Z,25.50
2023-05-20T15:13:12.236Z,25.50
2023-05-20T15:15:41.560Z,25.50
2023-05-20T15:18:11.237Z,25.50
2023-05-20T15:20:40.947Z,25.50
2023-05-20T15:23:10.804Z,25.50
2023-05-20T15:25:42.172Z,25.50
2023-05-20T15:28:11.696Z,25.50
2023-05-20T15:30:40.996Z,25.50
2023-05-20T15:33:11.022Z,25.50
2023-05-20T15:35:40.920Z,25.40
2023-05-20T15:38:10.477Z,25.40
2023-05-20T15:40:42.424Z,25.40
2023-05-20T15:43:12.020Z,25.40
2023-05-20T15:45:41.550Z,25.50
2023-05-20T15:48:11.487Z,25.50
2023-05-20T15:50:41.454Z,25.50
2023-05-20T15:53:11.118Z,25.50
2023-05-20T15:55:42.952Z,25.60
2023-05-20T15:58:12.607Z,25.60
2023-05-20T16:00:41.774Z,25.60
2023-05-20T16:03:11.871Z,25.60
2023-05-20T16:05:41.591Z,25.60
2023-05-20T16:08:11.473Z,25.50
2023-05-20T16:10:42.194Z,25.50
2023-05-20T16:13:11.481Z,25.50
2023-05-20T16:15:40.557Z,25.50
2023-05-20T16:18:10.032Z,25.50
2023-05-20T16:20:39.420Z,25.40
2023-05-20T16:23:08.787Z,25.40
2023-05-20T16:25:37.690Z,25.40
2023-05-20T16:28:08.133Z,25.40
2023-05-20T16:30:37.296Z,25.40
2023-05-20T16:33:07.621Z,25.40
2023-05-20T16:35:36.524Z,25.40
2023-05-20T16:38:06.518Z,25.40
2023-05-20T16:40:36.717Z,25.40
2023-05-20T16:43:07.253Z,25.40
2023-05-20T16:45:36.773Z,25.40
2023-05-20T16:48:06.379Z,25.40
2023-05-20T16:50:35.815Z,25.40
2023-05-20T16:53:05.009Z,25.30
2023-05-20T16:55:34.491Z,25.40
2023-05-20T16:58:04.047Z,25.30
2023-05-20T17:00:35.150Z,25.30
2023-05-20T17:03:05.053Z,25.30
2023-05-20T17:05:34.448Z,25.30
2023-05-20T17:08:06.367Z,25.30
2023-05-20T17:10:35.763Z,25.30
2023-05-20T17:13:05.118Z,25.20
2023-05-20T17:15:37.312Z,25.20
2023-05-20T17:18:06.894Z,25.10
2023-05-20T17:20:36.643Z,25.10
2023-05-20T17:23:05.965Z,25.10
2023-05-20T17:25:36.891Z,25.00
2023-05-20T17:28:06.611Z,25.00
2023-05-20T17:30:37.547Z,25.00
2023-05-20T17:33:07.221Z,24.90
2023-05-20T17:35:37.574Z,25.00
2023-05-20T17:38:07.184Z,24.90
2023-05-20T17:40:36.789Z,24.90
2023-05-20T17:43:06.778Z,24.80
2023-05-20T17:45:37.610Z,24.80
2023-05-20T17:48:08.178Z,24.80
2023-05-20T17:50:40.202Z,24.80
2023-05-20T17:53:09.665Z,24.70
2023-05-20T17:55:41.189Z,24.70
2023-05-20T17:58:11.628Z,24.60
2023-05-20T18:00:43.683Z,24.60
2023-05-20T18:03:13.958Z,24.60
2023-05-20T18:05:43.511Z,24.50
2023-05-20T18:08:19.230Z,24.50
2023-05-20T18:10:49.194Z,24.40
2023-05-20T18:13:18.859Z,24.40
2023-05-20T18:15:49.666Z,24.30
2023-05-20T18:18:19.248Z,24.30
2023-05-20T18:20:48.508Z,24.30
2023-05-20T18:23:17.690Z,24.30
2023-05-20T18:25:46.936Z,24.20
2023-05-20T18:28:16.578Z,24.20
2023-05-20T18:30:46.225Z,24.20
2023-05-20T18:33:17.103Z,24.10
2023-05-20T18:35:46.707Z,24.10
2023-05-20T18:38:16.448Z,24.10
2023-05-20T18:40:47.852Z,24.00
2023-05-20T18:43:17.420Z,24.00
2023-05-20T18:45:47.043Z,24.00
2023-05-20T18:48:26.135Z,23.90
2023-05-20T18:50:56.270Z,23.90
2023-05-20T18:53:26.202Z,23.90
2023-05-20T18:55:56.019Z,23.80
2023-05-20T18:58:27.405Z,23.80
2023-05-20T19:00:56.794Z,23.80
2023-05-20T19:03:27.517Z,23.70
2023-05-20T19:05:57.197Z,23.70
2023-05-20T19:08:27.594Z,23.70
2023-05-20T19:10:59.885Z,23.70
2023-05-20T19:13:30.535Z,23.70
2023-05-20T19:16:00.084Z,23.60
2023-05-20T19:18:30.828Z,23.60
2023-05-20T19:21:00.048Z,23.60
2023-05-20T19:23:29.429Z,23.50
2023-05-20T19:25:58.748Z,23.50
2023-05-20T19:28:27.933Z,23.40
2023-05-20T19:30:57.577Z,23.40
2023-05-20T19:33:27.336Z,23.40
2023-05-20T19:35:58.290Z,23.40
2023-05-20T19:38:27.487Z,23.30
2023-05-20T19:40:56.928Z,23.30
2023-05-20T19:43:26.083Z,23.30
2023-05-20T19:45:55.828Z,23.30
2023-05-20T19:48:25.317Z,23.30
2023-05-20T19:50:55.321Z,23.30
2023-05-20T19:53:30.369Z,23.20
2023-05-20T19:56:01.085Z,23.20
2023-05-20T19:58:30.616Z,23.20
2023-05-20T20:00:59.905Z,23.20
2023-05-20T20:03:29.158Z,23.20
2023-05-20T20:05:58.579Z,23.10
2023-05-20T20:08:29.298Z,23.10
2023-05-20T20:11:01.955Z,23.10
2023-05-20T20:13:31.414Z,23.10
2023-05-20T20:16:01.536Z,23.10
2023-05-20T20:18:31.066Z,23.00
2023-05-20T20:21:05.535Z,23.00
2023-05-20T20:23:38.018Z,23.00
2023-05-20T20:26:07.819Z,23.00
2023-05-20T20:28:37.390Z,23.00
2023-05-20T20:31:07.207Z,23.00
2023-05-20T20:33:36.943Z,23.00
2023-05-20T20:36:09.076Z,23.00
2023-05-20T20:38:39.678Z,22.90
2023-05-20T20:41:10.422Z,22.90
2023-05-20T20:43:40.380Z,22.90
2023-05-20T20:46:11.419Z,22.90
2023-05-20T20:48:45.879Z,22.90
2023-05-20T20:51:15.955Z,22.90
2023-05-20T20:53:48.724Z,22.90
2023-05-20T20:56:18.728Z,22.80
2023-05-20T20:58:48.202Z,22.80
2023-05-20T21:01:17.788Z,22.80
2023-05-20T21:03:48.469Z,22.70
2023-05-20T21:06:18.345Z,22.70
2023-05-20T21:08:49.458Z,22.70
2023-05-20T21:11:19.858Z,22.70
2023-05-20T21:13:49.694Z,22.70
2023-05-20T21:16:19.359Z,22.60
2023-05-20T21:18:48.480Z,22.60
2023-05-20T21:21:20.549Z,22.60
2023-05-20T21:23:52.995Z,22.60
2023-05-20T21:26:22.694Z,22.60
2023-05-20T21:28:52.241Z,22.60
2023-05-20T21:31:24.545Z,22.50
2023-05-20T21:33:54.215Z,22.50
2023-05-20T21:36:23.846Z,22.50
2023-05-20T21:38:54.915Z,22.50
2023-05-20T21:41:24.856Z,22.40
2023-05-20T21:43:54.307Z,22.40
2023-05-20T21:46:23.869Z,22.40
2023-05-20T21:48:53.589Z,22.40
2023-05-20T21:51:23.065Z,22.30
2023-05-20T21:53:52.473Z,22.30
2023-05-20T21:56:23.275Z,22.30
2023-05-20T21:58:52.600Z,22.30
2023-05-20T22:01:21.950Z,22.30
2023-05-20T22:03:51.711Z,22.20
2023-05-20T22:06:22.124Z,22.20
2023-05-20T22:08:51.584Z,22.20
2023-05-20T22:11:23.854Z,22.20
2023-05-20T22:13:53.639Z,22.20
2023-05-20T22:16:23.038Z,22.20
2023-05-20T22:18:53.966Z,22.10
2023-05-20T22:21:24.648Z,22.10
2023-05-20T22:23:53.882Z,22.10
2023-05-20T22:26:25.351Z,22.10
2023-05-20T22:28:55.057Z,22.10
2023-05-20T22:31:25.997Z,22.00
2023-05-20T22:33:55.912Z,22.00
2023-05-20T22:36:25.845Z,22.00
2023-05-20T22:38:55.582Z,22.00
2023-05-20T22:41:26.464Z,22.00
2023-05-20T22:43:57.372Z,22.00
2023-05-20T22:46:27.624Z,22.00
2023-05-20T22:48:58.515Z,22.00
2023-05-20T22:51:27.578Z,21.90
2023-05-20T22:53:57.411Z,21.90
2023-05-20T22:56:29.513Z,21.90
2023-05-20T22:58:59.024Z,21.90
2023-05-20T23:01:28.515Z,21.90
2023-05-20T23:03:57.964Z,21.90
2023-05-20T23:06:27.681Z,21.90
2023-05-20T23:08:57.606Z,21.90
2023-05-20T23:11:28.239Z,21.90
2023-05-20T23:13:57.674Z,21.90
2023-05-20T23:16:27.937Z,21.90
2023-05-20T23:18:57.957Z,21.90
2023-05-20T23:21:27.492Z,21.80
2023-05-20T23:23:57.056Z,21.80
2023-05-20T23:26:28.918Z,21.80
2023-05-20T23:28:58.324Z,21.80
2023-05-20T23:31:30.038Z,21.80
2023-05-20T23:33:59.708Z,21.80
2023-05-20T23:36:30.143Z,21.80
2023-05-20T23:38:59.800Z,21.80
2023-05-20T23:41:30.714Z,21.80
2023-05-20T23:44:05.472Z,21.80
2023-05-20T23:46:34.711Z,21.70
2023-05-20T23:49:04.022Z,21.70
2023-05-20T23:51:33.045Z,21.70
2023-05-20T23:54:02.290Z,21.70
2023-05-20T23:56:32.888Z,21.70
2023-05-20T23:59:02.063Z,21.60
